sensor_id;sensor_type;location;lat;lon;timestamp;temperature;humidity
80134;SHT30;69443;51.442;10.564;2023-06-10T00:01:39;22.31;40.31
80134;SHT30;69443;51.442;10.564;2023-06-10T00:04:04;22.25;40.31
80134;SHT30;69443;51.442;10.564;2023-06-10T00:06:30;22.21;40.51
80134;SHT30;69443;51.442;10.564;2023-06-10T00:09:00;22.18;40.59
80134;SHT30;69443;51.442;10.564;2023-06-10T00:11:26;22.13;40.70
80134;SHT30;69443;51.442;10.564;2023-06-10T00:13:51;22.13;40.73
80134;SHT30;69443;51.442;10.564;2023-06-10T00:16:16;22.03;40.94
80134;SHT30;69443;51.442;10.564;2023-06-10T00:18:43;22.03;40.85
80134;SHT30;69443;51.442;10.564;2023-06-10T00:21:09;21.97;40.80
80134;SHT30;69443;51.442;10.564;2023-06-10T00:23:35;21.96;40.94
80134;SHT30;69443;51.442;10.564;2023-06-10T00:26:03;21.92;40.95
80134;SHT30;69443;51.442;10.564;2023-06-10T00:28:29;21.89;40.95
80134;SHT30;69443;51.442;10.564;2023-06-10T00:30:55;21.86;40.99
80134;SHT30;69443;51.442;10.564;2023-06-10T00:33:21;21.80;41.17
80134;SHT30;69443;51.442;10.564;2023-06-10T00:35:46;21.79;41.14
80134;SHT30;69443;51.442;10.564;2023-06-10T00:38:13;21.70;41.31
80134;SHT30;69443;51.442;10.564;2023-06-10T00:40:39;21.69;41.45
80134;SHT30;69443;51.442;10.564;2023-06-10T00:43:06;21.63;41.43
80134;SHT30;69443;51.442;10.564;2023-06-10T00:45:31;21.60;41.45
80134;SHT30;69443;51.442;10.564;2023-06-10T00:47:58;21.58;41.48
80134;SHT30;69443;51.442;10.564;2023-06-10T00:50:23;21.52;41.65
80134;SHT30;69443;51.442;10.564;2023-06-10T00:52:49;21.49;41.69
80134;SHT30;69443;51.442;10.564;2023-06-10T00:55:18;21.43;41.83
80134;SHT30;69443;51.442;10.564;2023-06-10T00:57:45;21.41;41.85
80134;SHT30;69443;51.442;10.564;2023-06-10T01:00:11;21.38;41.94
80134;SHT30;69443;51.442;10.564;2023-06-10T01:02:37;21.35;41.90
80134;SHT30;69443;51.442;10.564;2023-06-10T01:05:03;21.30;41.97
80134;SHT30;69443;51.442;10.564;2023-06-10T01:12:59;21.21;42.25
80134;SHT30;69443;51.442;10.564;2023-06-10T01:15:31;21.18;42.13
80134;SHT30;69443;51.442;10.564;2023-06-10T01:18:01;21.12;42.17
80134;SHT30;69443;51.442;10.564;2023-06-10T01:20:31;21.08;42.12
80134;SHT30;69443;51.442;10.564;2023-06-10T01:22:58;21.08;42.19
80134;SHT30;69443;51.442;10.564;2023-06-10T01:25:25;21.04;42.17
80134;SHT30;69443;51.442;10.564;2023-06-10T01:28:14;21.03;42.06
80134;SHT30;69443;51.442;10.564;2023-06-10T01:33:36;20.89;42.32
80134;SHT30;69443;51.442;10.564;2023-06-10T01:36:03;20.86;42.33
80134;SHT30;69443;51.442;10.564;2023-06-10T01:38:45;20.83;42.46
80134;SHT30;69443;51.442;10.564;2023-06-10T01:41:12;20.79;42.43
80134;SHT30;69443;51.442;10.564;2023-06-10T01:43:39;20.75;42.36
80134;SHT30;69443;51.442;10.564;2023-06-10T01:46:05;20.69;42.40
80134;SHT30;69443;51.442;10.564;2023-06-10T01:48:32;20.68;42.42
80134;SHT30;69443;51.442;10.564;2023-06-10T01:50:58;20.69;42.51
80134;SHT30;69443;51.442;10.564;2023-06-10T01:53:23;20.62;42.63
80134;SHT30;69443;51.442;10.564;2023-06-10T01:55:48;20.56;42.70
80134;SHT30;69443;51.442;10.564;2023-06-10T01:58:14;20.55;42.69
80134;SHT30;69443;51.442;10.564;2023-06-10T02:00:40;20.48;42.64
80134;SHT30;69443;51.442;10.564;2023-06-10T02:03:05;20.44;42.74
80134;SHT30;69443;51.442;10.564;2023-06-10T02:05:31;20.39;42.80
80134;SHT30;69443;51.442;10.564;2023-06-10T02:07:56;20.38;42.72
80134;SHT30;69443;51.442;10.564;2023-06-10T02:10:21;20.34;42.67
80134;SHT30;69443;51.442;10.564;2023-06-10T02:12:47;20.32;42.75
80134;SHT30;69443;51.442;10.564;2023-06-10T02:15:12;20.27;42.87
80134;SHT30;69443;51.442;10.564;2023-06-10T02:17:38;20.21;42.77
80134;SHT30;69443;51.442;10.564;2023-06-10T02:20:04;20.20;42.94
80134;SHT30;69443;51.442;10.564;2023-06-10T02:22:32;20.17;42.99
80134;SHT30;69443;51.442;10.564;2023-06-10T02:24:58;20.13;43.02
80134;SHT30;69443;51.442;10.564;2023-06-10T02:27:23;20.06;43.13
80134;SHT30;69443;51.442;10.564;2023-06-10T02:29:49;20.03;43.11
80134;SHT30;69443;51.442;10.564;2023-06-10T02:32:15;19.98;43.09
80134;SHT30;69443;51.442;10.564;2023-06-10T02:34:40;19.93;43.05
80134;SHT30;69443;51.442;10.564;2023-06-10T02:37:08;19.89;43.14
80134;SHT30;69443;51.442;10.564;2023-06-10T02:39:33;19.84;43.15
80134;SHT30;69443;51.442;10.564;2023-06-10T02:41:58;19.83;43.25
80134;SHT30;69443;51.442;10.564;2023-06-10T02:44:24;19.79;43.29
80134;SHT30;69443;51.442;10.564;2023-06-10T02:46:49;19.77;43.27
80134;SHT30;69443;51.442;10.564;2023-06-10T02:49:15;19.72;43.32
80134;SHT30;69443;51.442;10.564;2023-06-10T02:51:41;19.72;43.48
80134;SHT30;69443;51.442;10.564;2023-06-10T02:54:06;19.67;43.47
80134;SHT30;69443;51.442;10.564;2023-06-10T02:56:32;19.65;43.57
80134;SHT30;69443;51.442;10.564;2023-06-10T02:58:58;19.59;43.64
80134;SHT30;69443;51.442;10.564;2023-06-10T03:01:24;19.55;43.70
80134;SHT30;69443;51.442;10.564;2023-06-10T03:03:49;19.52;43.74
80134;SHT30;69443;51.442;10.564;2023-06-10T03:06:16;19.48;43.92
80134;SHT30;69443;51.442;10.564;2023-06-10T03:08:42;19.45;44.04
80134;SHT30;69443;51.442;10.564;2023-06-10T03:11:07;19.41;44.17
80134;SHT30;69443;51.442;10.564;2023-06-10T03:13:32;19.41;44.11
80134;SHT30;69443;51.442;10.564;2023-06-10T03:15:58;19.35;44.18
80134;SHT30;69443;51.442;10.564;2023-06-10T03:18:27;19.31;44.17
80134;SHT30;69443;51.442;10.564;2023-06-10T03:20:54;19.28;44.06
80134;SHT30;69443;51.442;10.564;2023-06-10T03:23:20;19.22;44.21
80134;SHT30;69443;51.442;10.564;2023-06-10T03:25:45;19.15;44.22
80134;SHT30;69443;51.442;10.564;2023-06-10T03:28:11;19.13;44.23
80134;SHT30;69443;51.442;10.564;2023-06-10T03:30:36;19.10;44.26
80134;SHT30;69443;51.442;10.564;2023-06-10T03:33:02;19.08;44.20
80134;SHT30;69443;51.442;10.564;2023-06-10T03:35:27;19.06;44.37
80134;SHT30;69443;51.442;10.564;2023-06-10T03:37:53;19.04;44.38
80134;SHT30;69443;51.442;10.564;2023-06-10T03:40:18;19.04;44.49
80134;SHT30;69443;51.442;10.564;2023-06-10T03:42:43;19.00;44.43
80134;SHT30;69443;51.442;10.564;2023-06-10T03:47:39;18.96;44.48
80134;SHT30;69443;51.442;10.564;2023-06-10T03:50:06;18.94;44.55
80134;SHT30;69443;51.442;10.564;2023-06-10T03:52:33;18.96;44.63
80134;SHT30;69443;51.442;10.564;2023-06-10T03:54:59;18.96;44.68
80134;SHT30;69443;51.442;10.564;2023-06-10T03:57:24;18.94;44.73
80134;SHT30;69443;51.442;10.564;2023-06-10T03:59:50;18.96;44.72
80134;SHT30;69443;51.442;10.564;2023-06-10T04:02:15;18.94;44.72
80134;SHT30;69443;51.442;10.564;2023-06-10T04:04:41;18.93;44.90
80134;SHT30;69443;51.442;10.564;2023-06-10T04:07:06;18.96;44.93
80134;SHT30;69443;51.442;10.564;2023-06-10T04:09:34;19.00;45.04
80134;SHT30;69443;51.442;10.564;2023-06-10T04:12:01;18.99;45.15
80134;SHT30;69443;51.442;10.564;2023-06-10T04:14:26;19.03;45.24
80134;SHT30;69443;51.442;10.564;2023-06-10T04:16:52;19.08;45.53
80134;SHT30;69443;51.442;10.564;2023-06-10T04:19:18;19.14;45.41
80134;SHT30;69443;51.442;10.564;2023-06-10T04:21:43;19.18;45.51
80134;SHT30;69443;51.442;10.564;2023-06-10T04:24:09;19.21;45.58
80134;SHT30;69443;51.442;10.564;2023-06-10T04:26:37;19.28;45.68
80134;SHT30;69443;51.442;10.564;2023-06-10T04:29:03;19.30;45.37
80134;SHT30;69443;51.442;10.564;2023-06-10T04:31:28;19.35;45.51
80134;SHT30;69443;51.442;10.564;2023-06-10T04:33:54;19.38;45.38
80134;SHT30;69443;51.442;10.564;2023-06-10T04:36:19;19.39;45.34
80134;SHT30;69443;51.442;10.564;2023-06-10T04:38:45;19.48;45.32
80134;SHT30;69443;51.442;10.564;2023-06-10T04:41:11;19.51;45.23
80134;SHT30;69443;51.442;10.564;2023-06-10T04:43:36;19.58;45.17
80134;SHT30;69443;51.442;10.564;2023-06-10T04:46:01;19.62;45.10
80134;SHT30;69443;51.442;10.564;2023-06-10T04:48:27;19.72;44.99
80134;SHT30;69443;51.442;10.564;2023-06-10T04:50:52;19.76;44.96
80134;SHT30;69443;51.442;10.564;2023-06-10T04:53:18;19.83;44.91
80134;SHT30;69443;51.442;10.564;2023-06-10T04:55:43;19.90;44.82
80134;SHT30;69443;51.442;10.564;2023-06-10T04:58:09;19.96;44.75
80134;SHT30;69443;51.442;10.564;2023-06-10T05:00:34;20.07;44.68
80134;SHT30;69443;51.442;10.564;2023-06-10T05:03:00;20.14;44.64
80134;SHT30;69443;51.442;10.564;2023-06-10T05:05:25;20.22;44.64
80134;SHT30;69443;51.442;10.564;2023-06-10T05:07:50;20.28;44.51
80134;SHT30;69443;51.442;10.564;2023-06-10T05:10:16;20.39;44.52
80134;SHT30;69443;51.442;10.564;2023-06-10T05:12:41;20.46;44.46
80134;SHT30;69443;51.442;10.564;2023-06-10T05:15:07;20.55;44.39
80134;SHT30;69443;51.442;10.564;2023-06-10T05:17:33;20.62;44.32
80134;SHT30;69443;51.442;10.564;2023-06-10T05:20:00;20.72;44.21
80134;SHT30;69443;51.442;10.564;2023-06-10T05:22:26;20.79;44.17
80134;SHT30;69443;51.442;10.564;2023-06-10T05:24:52;20.90;44.16
80134;SHT30;69443;51.442;10.564;2023-06-10T05:27:18;21.00;44.04
80134;SHT30;69443;51.442;10.564;2023-06-10T05:29:43;21.07;44.02
80134;SHT30;69443;51.442;10.564;2023-06-10T05:32:10;21.20;43.87
80134;SHT30;69443;51.442;10.564;2023-06-10T05:34:36;21.27;43.70
80134;SHT30;69443;51.442;10.564;2023-06-10T05:37:01;21.37;43.61
80134;SHT30;69443;51.442;10.564;2023-06-10T05:39:27;21.48;43.57
80134;SHT30;69443;51.442;10.564;2023-06-10T05:41:52;21.56;43.56
80134;SHT30;69443;51.442;10.564;2023-06-10T05:44:18;21.63;43.43
80134;SHT30;69443;51.442;10.564;2023-06-10T05:46:43;21.75;43.41
80134;SHT30;69443;51.442;10.564;2023-06-10T05:49:08;21.83;43.31
80134;SHT30;69443;51.442;10.564;2023-06-10T05:51:34;21.94;43.18
80134;SHT30;69443;51.442;10.564;2023-06-10T05:53:59;22.03;43.13
80134;SHT30;69443;51.442;10.564;2023-06-10T05:56:25;22.13;43.02
80134;SHT30;69443;51.442;10.564;2023-06-10T05:58:51;22.24;42.92
80134;SHT30;69443;51.442;10.564;2023-06-10T06:01:16;22.34;42.73
80134;SHT30;69443;51.442;10.564;2023-06-10T06:03:41;22.46;42.63
80134;SHT30;69443;51.442;10.564;2023-06-10T06:06:08;22.56;42.52
80134;SHT30;69443;51.442;10.564;2023-06-10T06:08:33;22.67;42.44
80134;SHT30;69443;51.442;10.564;2023-06-10T06:10:59;22.79;42.28
80134;SHT30;69443;51.442;10.564;2023-06-10T06:13:24;22.89;42.08
80134;SHT30;69443;51.442;10.564;2023-06-10T06:15:50;23.00;41.90
80134;SHT30;69443;51.442;10.564;2023-06-10T06:18:15;23.11;41.95
80134;SHT30;69443;51.442;10.564;2023-06-10T06:20:41;23.22;41.81
80134;SHT30;69443;51.442;10.564;2023-06-10T06:23:07;23.37;41.58
80134;SHT30;69443;51.442;10.564;2023-06-10T06:25:35;23.46;41.49
80134;SHT30;69443;51.442;10.564;2023-06-10T06:28:01;23.61;41.44
80134;SHT30;69443;51.442;10.564;2023-06-10T06:30:26;23.73;41.30
80134;SHT30;69443;51.442;10.564;2023-06-10T06:32:52;23.84;41.24
80134;SHT30;69443;51.442;10.564;2023-06-10T06:35:17;23.97;41.19
80134;SHT30;69443;51.442;10.564;2023-06-10T06:37:42;24.07;41.02
80134;SHT30;69443;51.442;10.564;2023-06-10T06:40:08;24.18;41.07
80134;SHT30;69443;51.442;10.564;2023-06-10T06:42:34;24.26;41.03
80134;SHT30;69443;51.442;10.564;2023-06-10T06:44:59;24.38;40.86
80134;SHT30;69443;51.442;10.564;2023-06-10T06:47:24;24.53;40.83
80134;SHT30;69443;51.442;10.564;2023-06-10T06:49:51;24.63;40.87
80134;SHT30;69443;51.442;10.564;2023-06-10T06:52:17;24.76;40.72
80134;SHT30;69443;51.442;10.564;2023-06-10T06:54:42;24.91;40.76
80134;SHT30;69443;51.442;10.564;2023-06-10T06:57:08;25.01;40.62
80134;SHT30;69443;51.442;10.564;2023-06-10T06:59:33;25.15;40.58
80134;SHT30;69443;51.442;10.564;2023-06-10T07:01:59;25.27;40.50
80134;SHT30;69443;51.442;10.564;2023-06-10T07:04:24;25.41;40.37
80134;SHT30;69443;51.442;10.564;2023-06-10T07:06:50;25.52;40.40
80134;SHT30;69443;51.442;10.564;2023-06-10T07:09:15;25.63;40.22
80134;SHT30;69443;51.442;10.564;2023-06-10T07:11:41;25.77;40.16
80134;SHT30;69443;51.442;10.564;2023-06-10T07:14:07;25.89;40.19
80134;SHT30;69443;51.442;10.564;2023-06-10T07:16:32;26.00;40.13
80134;SHT30;69443;51.442;10.564;2023-06-10T07:18:58;26.14;40.09
80134;SHT30;69443;51.442;10.564;2023-06-10T07:21:23;26.24;40.11
80134;SHT30;69443;51.442;10.564;2023-06-10T07:23:49;26.36;40.06
80134;SHT30;69443;51.442;10.564;2023-06-10T07:26:17;26.49;39.97
80134;SHT30;69443;51.442;10.564;2023-06-10T07:28:43;26.59;39.85
80134;SHT30;69443;51.442;10.564;2023-06-10T07:31:08;26.72;39.85
80134;SHT30;69443;51.442;10.564;2023-06-10T07:33:34;26.83;39.89
80134;SHT30;69443;51.442;10.564;2023-06-10T07:35:59;26.98;39.82
80134;SHT30;69443;51.442;10.564;2023-06-10T07:38:25;27.08;39.75
80134;SHT30;69443;51.442;10.564;2023-06-10T07:40:51;27.22;39.81
80134;SHT30;69443;51.442;10.564;2023-06-10T07:43:17;27.35;39.71
80134;SHT30;69443;51.442;10.564;2023-06-10T07:45:43;27.49;39.65
80134;SHT30;69443;51.442;10.564;2023-06-10T07:48:08;27.60;39.54
80134;SHT30;69443;51.442;10.564;2023-06-10T07:50:34;27.73;39.57
80134;SHT30;69443;51.442;10.564;2023-06-10T07:52:59;27.84;39.54
80134;SHT30;69443;51.442;10.564;2023-06-10T07:55:25;27.98;39.52
80134;SHT30;69443;51.442;10.564;2023-06-10T07:57:51;28.10;40.21
80134;SHT30;69443;51.442;10.564;2023-06-10T08:00:17;28.28;39.49
80134;SHT30;69443;51.442;10.564;2023-06-10T08:02:43;28.41;39.26
80134;SHT30;69443;51.442;10.564;2023-06-10T08:05:08;28.52;39.14
80134;SHT30;69443;51.442;10.564;2023-06-10T08:07:35;28.63;39.20
80134;SHT30;69443;51.442;10.564;2023-06-10T08:10:01;28.79;39.14
80134;SHT30;69443;51.442;10.564;2023-06-10T08:12:26;28.91;39.09
80134;SHT30;69443;51.442;10.564;2023-06-10T08:14:51;29.03;38.97
80134;SHT30;69443;51.442;10.564;2023-06-10T08:17:17;29.19;38.89
80134;SHT30;69443;51.442;10.564;2023-06-10T08:19:42;29.31;38.76
80134;SHT30;69443;51.442;10.564;2023-06-10T08:22:08;29.43;38.74
80134;SHT30;69443;51.442;10.564;2023-06-10T08:24:33;29.62;39.08
80134;SHT30;69443;51.442;10.564;2023-06-10T08:26:58;29.74;38.92
80134;SHT30;69443;51.442;10.564;2023-06-10T08:29:25;29.88;38.40
80134;SHT30;69443;51.442;10.564;2023-06-10T08:31:50;29.97;38.69
80134;SHT30;69443;51.442;10.564;2023-06-10T08:34:16;30.13;38.43
80134;SHT30;69443;51.442;10.564;2023-06-10T08:36:43;30.21;38.29
80134;SHT30;69443;51.442;10.564;2023-06-10T08:39:09;30.33;38.25
80134;SHT30;69443;51.442;10.564;2023-06-10T08:41:37;30.42;38.24
80134;SHT30;69443;51.442;10.564;2023-06-10T08:44:23;30.63;38.46
80134;SHT30;69443;51.442;10.564;2023-06-10T08:46:51;30.73;38.00
80134;SHT30;69443;51.442;10.564;2023-06-10T08:49:18;30.83;37.91
80134;SHT30;69443;51.442;10.564;2023-06-10T08:51:50;30.95;37.85
80134;SHT30;69443;51.442;10.564;2023-06-10T08:54:20;31.07;38.18
80134;SHT30;69443;51.442;10.564;2023-06-10T08:56:49;31.21;37.71
80134;SHT30;69443;51.442;10.564;2023-06-10T08:59:16;31.31;37.62
80134;SHT30;69443;51.442;10.564;2023-06-10T09:01:43;31.41;37.57
80134;SHT30;69443;51.442;10.564;2023-06-10T09:04:09;31.53;37.49
80134;SHT30;69443;51.442;10.564;2023-06-10T09:06:36;31.61;37.51
80134;SHT30;69443;51.442;10.564;2023-06-10T09:09:05;31.74;37.48
80134;SHT30;69443;51.442;10.564;2023-06-10T09:11:31;31.87;37.33
80134;SHT30;69443;51.442;10.564;2023-06-10T09:13:57;31.97;37.21
80134;SHT30;69443;51.442;10.564;2023-06-10T09:16:24;32.07;37.12
80134;SHT30;69443;51.442;10.564;2023-06-10T09:18:50;32.20;37.11
80134;SHT30;69443;51.442;10.564;2023-06-10T09:21:24;32.43;35.82
80134;SHT30;69443;51.442;10.564;2023-06-10T09:23:50;32.48;36.70
80134;SHT30;69443;51.442;10.564;2023-06-10T09:26:16;32.56;36.50
80134;SHT30;69443;51.442;10.564;2023-06-10T09:28:48;32.62;36.64
80134;SHT30;69443;51.442;10.564;2023-06-10T09:31:16;32.68;36.61
80134;SHT30;69443;51.442;10.564;2023-06-10T09:33:44;32.73;36.75
80134;SHT30;69443;51.442;10.564;2023-06-10T09:36:10;32.84;36.76
80134;SHT30;69443;51.442;10.564;2023-06-10T09:38:36;33.00;35.76
80134;SHT30;69443;51.442;10.564;2023-06-10T09:41:03;33.08;36.33
80134;SHT30;69443;51.442;10.564;2023-06-10T09:43:43;33.20;35.77
80134;SHT30;69443;51.442;10.564;2023-06-10T09:46:19;33.44;35.27
80134;SHT30;69443;51.442;10.564;2023-06-10T09:48:47;33.45;35.47
80134;SHT30;69443;51.442;10.564;2023-06-10T09:51:14;33.62;35.09
80134;SHT30;69443;51.442;10.564;2023-06-10T09:53:40;33.62;35.78
80134;SHT30;69443;51.442;10.564;2023-06-10T09:56:05;33.69;35.10
80134;SHT30;69443;51.442;10.564;2023-06-10T09:58:38;33.77;34.85
80134;SHT30;69443;51.442;10.564;2023-06-10T10:01:09;33.85;34.72
80134;SHT30;69443;51.442;10.564;2023-06-10T10:03:49;33.89;34.81
80134;SHT30;69443;51.442;10.564;2023-06-10T10:06:17;33.97;35.44
80134;SHT30;69443;51.442;10.564;2023-06-10T10:08:43;34.07;33.89
80134;SHT30;69443;51.442;10.564;2023-06-10T10:11:09;34.14;34.32
80134;SHT30;69443;51.442;10.564;2023-06-10T10:13:35;34.21;32.91
80134;SHT30;69443;51.442;10.564;2023-06-10T10:16:06;34.23;35.00
80134;SHT30;69443;51.442;10.564;2023-06-10T10:18:39;34.27;35.15
80134;SHT30;69443;51.442;10.564;2023-06-10T10:21:13;34.34;35.02
80134;SHT30;69443;51.442;10.564;2023-06-10T10:26:26;34.58;34.37
80134;SHT30;69443;51.442;10.564;2023-06-10T10:29:07;34.86;31.38
80134;SHT30;69443;51.442;10.564;2023-06-10T10:31:35;34.83;32.80
80134;SHT30;69443;51.442;10.564;2023-06-10T10:34:06;34.92;32.26
80134;SHT30;69443;51.442;10.564;2023-06-10T10:36:31;34.97;33.31
80134;SHT30;69443;51.442;10.564;2023-06-10T10:38:57;35.17;30.93
80134;SHT30;69443;51.442;10.564;2023-06-10T10:41:24;35.17;32.09
80134;SHT30;69443;51.442;10.564;2023-06-10T10:43:52;35.13;32.22
80134;SHT30;69443;51.442;10.564;2023-06-10T10:46:18;35.15;31.05
80134;SHT30;69443;51.442;10.564;2023-06-10T10:48:44;35.18;32.70
80134;SHT30;69443;51.442;10.564;2023-06-10T10:51:10;35.23;33.14
80134;SHT30;69443;51.442;10.564;2023-06-10T10:53:39;35.29;30.53
80134;SHT30;69443;51.442;10.564;2023-06-10T10:56:05;35.34;32.19
80134;SHT30;69443;51.442;10.564;2023-06-10T10:58:32;35.44;30.14
80134;SHT30;69443;51.442;10.564;2023-06-10T11:00:58;35.49;29.15
80134;SHT30;69443;51.442;10.564;2023-06-10T11:03:28;35.59;28.01
80134;SHT30;69443;51.442;10.564;2023-06-10T11:05:57;35.54;27.85
80134;SHT30;69443;51.442;10.564;2023-06-10T11:10:53;35.42;28.80
80134;SHT30;69443;51.442;10.564;2023-06-10T11:13:20;35.42;28.13
80134;SHT30;69443;51.442;10.564;2023-06-10T11:15:48;35.44;29.78
80134;SHT30;69443;51.442;10.564;2023-06-10T11:26:18;35.48;28.10
80134;SHT30;69443;51.442;10.564;2023-06-10T11:31:32;35.33;27.16
80134;SHT30;69443;51.442;10.564;2023-06-10T11:34:05;35.38;28.03
80134;SHT30;69443;51.442;10.564;2023-06-10T11:36:32;35.38;27.72
80134;SHT30;69443;51.442;10.564;2023-06-10T11:39:04;35.42;28.47
80134;SHT30;69443;51.442;10.564;2023-06-10T11:41:30;35.44;27.05
80134;SHT30;69443;51.442;10.564;2023-06-10T11:46:34;35.37;25.71
80134;SHT30;69443;51.442;10.564;2023-06-10T11:49:00;35.34;26.28
80134;SHT30;69443;51.442;10.564;2023-06-10T11:51:29;35.21;26.08
80134;SHT30;69443;51.442;10.564;2023-06-10T11:53:56;35.34;27.62
80134;SHT30;69443;51.442;10.564;2023-06-10T11:56:23;35.33;26.92
80134;SHT30;69443;51.442;10.564;2023-06-10T11:59:03;35.38;27.15
80134;SHT30;69443;51.442;10.564;2023-06-10T12:01:31;35.45;27.36
80134;SHT30;69443;51.442;10.564;2023-06-10T12:06:23;35.29;26.51
80134;SHT30;69443;51.442;10.564;2023-06-10T12:08:48;35.23;26.81
80134;SHT30;69443;51.442;10.564;2023-06-10T12:11:14;35.15;27.05
80134;SHT30;69443;51.442;10.564;2023-06-10T12:13:47;35.18;27.53
80134;SHT30;69443;51.442;10.564;2023-06-10T12:16:16;35.21;27.74
80134;SHT30;69443;51.442;10.564;2023-06-10T12:18:43;35.23;27.30
80134;SHT30;69443;51.442;10.564;2023-06-10T12:21:20;35.21;27.85
80134;SHT30;69443;51.442;10.564;2023-06-10T12:24:09;35.26;27.70
80134;SHT30;69443;51.442;10.564;2023-06-10T12:29:22;35.08;27.21
80134;SHT30;69443;51.442;10.564;2023-06-10T12:31:59;35.14;27.77
80134;SHT30;69443;51.442;10.564;2023-06-10T12:34:39;35.20;28.05
80134;SHT30;69443;51.442;10.564;2023-06-10T12:37:13;35.27;28.10
80134;SHT30;69443;51.442;10.564;2023-06-10T12:39:40;35.24;28.02
80134;SHT30;69443;51.442;10.564;2023-06-10T12:42:06;35.27;28.02
80134;SHT30;69443;51.442;10.564;2023-06-10T12:44:39;35.27;28.22
80134;SHT30;69443;51.442;10.564;2023-06-10T12:47:11;35.24;28.37
80134;SHT30;69443;51.442;10.564;2023-06-10T12:49:37;35.20;28.21
80134;SHT30;69443;51.442;10.564;2023-06-10T12:52:04;35.31;28.15
80134;SHT30;69443;51.442;10.564;2023-06-10T12:54:29;35.37;28.52
80134;SHT30;69443;51.442;10.564;2023-06-10T12:56:55;35.31;28.01
80134;SHT30;69443;51.442;10.564;2023-06-10T12:59:20;35.30;27.74
80134;SHT30;69443;51.442;10.564;2023-06-10T13:01:52;35.40;28.33
80134;SHT30;69443;51.442;10.564;2023-06-10T13:04:17;35.40;27.89
80134;SHT30;69443;51.442;10.564;2023-06-10T13:06:43;35.41;27.48
80134;SHT30;69443;51.442;10.564;2023-06-10T13:09:09;35.42;27.63
80134;SHT30;69443;51.442;10.564;2023-06-10T13:11:36;35.42;27.66
80134;SHT30;69443;51.442;10.564;2023-06-10T13:14:02;35.23;27.40
80134;SHT30;69443;51.442;10.564;2023-06-10T13:16:30;35.26;27.30
80134;SHT30;69443;51.442;10.564;2023-06-10T13:18:55;35.35;27.77
80134;SHT30;69443;51.442;10.564;2023-06-10T13:21:20;35.21;26.99
80134;SHT30;69443;51.442;10.564;2023-06-10T13:23:46;35.14;26.92
80134;SHT30;69443;51.442;10.564;2023-06-10T13:26:13;35.14;26.94
80134;SHT30;69443;51.442;10.564;2023-06-10T13:28:39;35.21;27.06
80134;SHT30;69443;51.442;10.564;2023-06-10T13:31:04;35.24;26.95
80134;SHT30;69443;51.442;10.564;2023-06-10T13:33:30;35.15;26.87
80134;SHT30;69443;51.442;10.564;2023-06-10T13:35:55;35.27;27.16
80134;SHT30;69443;51.442;10.564;2023-06-10T13:38:20;35.31;26.96
80134;SHT30;69443;51.442;10.564;2023-06-10T13:40:46;35.35;26.77
80134;SHT30;69443;51.442;10.564;2023-06-10T13:43:11;35.30;26.66
80134;SHT30;69443;51.442;10.564;2023-06-10T13:45:38;35.10;26.95
80134;SHT30;69443;51.442;10.564;2023-06-10T13:48:04;35.06;26.85
80134;SHT30;69443;51.442;10.564;2023-06-10T13:50:31;35.10;27.03
80134;SHT30;69443;51.442;10.564;2023-06-10T13:52:56;35.14;27.11
80134;SHT30;69443;51.442;10.564;2023-06-10T13:55:22;35.23;27.18
80134;SHT30;69443;51.442;10.564;2023-06-10T13:57:49;35.20;27.63
80134;SHT30;69443;51.442;10.564;2023-06-10T14:00:14;35.11;26.84
80134;SHT30;69443;51.442;10.564;2023-06-10T14:02:40;35.11;26.90
80134;SHT30;69443;51.442;10.564;2023-06-10T14:05:06;35.11;26.79
80134;SHT30;69443;51.442;10.564;2023-06-10T14:07:33;35.07;26.55
80134;SHT30;69443;51.442;10.564;2023-06-10T14:09:58;34.97;26.97
80134;SHT30;69443;51.442;10.564;2023-06-10T14:12:24;34.85;26.49
80134;SHT30;69443;51.442;10.564;2023-06-10T14:14:49;34.87;27.05
80134;SHT30;69443;51.442;10.564;2023-06-10T14:17:15;34.95;27.00
80134;SHT30;69443;51.442;10.564;2023-06-10T14:19:40;35.04;27.03
80134;SHT30;69443;51.442;10.564;2023-06-10T14:22:06;35.08;26.97
80134;SHT30;69443;51.442;10.564;2023-06-10T14:24:32;35.06;26.61
80134;SHT30;69443;51.442;10.564;2023-06-10T14:26:58;35.04;26.62
80134;SHT30;69443;51.442;10.564;2023-06-10T14:29:23;35.03;26.47
80134;SHT30;69443;51.442;10.564;2023-06-10T14:31:49;34.89;26.84
80134;SHT30;69443;51.442;10.564;2023-06-10T14:34:14;34.93;26.67
80134;SHT30;69443;51.442;10.564;2023-06-10T14:36:40;34.92;27.05
80134;SHT30;69443;51.442;10.564;2023-06-10T14:39:05;34.95;27.36
80134;SHT30;69443;51.442;10.564;2023-06-10T14:41:31;34.96;27.14
80134;SHT30;69443;51.442;10.564;2023-06-10T14:43:56;34.78;26.71
80134;SHT30;69443;51.442;10.564;2023-06-10T14:46:22;34.83;27.12
80134;SHT30;69443;51.442;10.564;2023-06-10T14:48:47;34.86;27.49
80134;SHT30;69443;51.442;10.564;2023-06-10T14:51:13;34.76;26.68
80134;SHT30;69443;51.442;10.564;2023-06-10T14:53:38;34.78;27.01
80134;SHT30;69443;51.442;10.564;2023-06-10T14:56:04;34.76;26.96
80134;SHT30;69443;51.442;10.564;2023-06-10T14:58:30;34.76;27.14
80134;SHT30;69443;51.442;10.564;2023-06-10T15:00:55;34.78;27.35
80134;SHT30;69443;51.442;10.564;2023-06-10T15:03:21;34.76;27.45
80134;SHT30;69443;51.442;10.564;2023-06-10T15:05:46;34.72;27.35
80134;SHT30;69443;51.442;10.564;2023-06-10T15:08:11;34.65;27.51
80134;SHT30;69443;51.442;10.564;2023-06-10T15:10:37;34.66;27.21
80134;SHT30;69443;51.442;10.564;2023-06-10T15:13:02;34.59;27.47
80134;SHT30;69443;51.442;10.564;2023-06-10T15:15:28;34.56;27.69
80134;SHT30;69443;51.442;10.564;2023-06-10T15:17:53;34.55;27.58
80134;SHT30;69443;51.442;10.564;2023-06-10T15:20:19;34.47;27.60
80134;SHT30;69443;51.442;10.564;2023-06-10T15:22:45;34.44;28.08
80134;SHT30;69443;51.442;10.564;2023-06-10T15:25:11;34.38;28.24
80134;SHT30;69443;51.442;10.564;2023-06-10T15:27:36;34.40;28.41
80134;SHT30;69443;51.442;10.564;2023-06-10T15:30:02;34.27;28.45
80134;SHT30;69443;51.442;10.564;2023-06-10T15:32:28;34.29;28.47
80134;SHT30;69443;51.442;10.564;2023-06-10T15:34:53;34.23;28.39
80134;SHT30;69443;51.442;10.564;2023-06-10T15:37:19;34.16;28.27
80134;SHT30;69443;51.442;10.564;2023-06-10T15:39:46;33.92;28.50
80134;SHT30;69443;51.442;10.564;2023-06-10T15:42:11;33.45;29.32
80134;SHT30;69443;51.442;10.564;2023-06-10T15:44:37;33.02;29.22
80134;SHT30;69443;51.442;10.564;2023-06-10T15:47:02;32.65;29.68